createdAt,value
2018-09-15T00:02:16.439Z,72.45
2018-09-15T00:04:44.232Z,72.49
2018-09-15T00:07:11.967Z,72.51
2018-09-15T00:09:39.644Z,72.51
2018-09-15T00:12:07.412Z,72.34
2018-09-15T00:14:35.129Z,71.19
2018-09-15T00:17:02.839Z,71.92
2018-09-15T00:19:30.591Z,71.24
2018-09-15T00:21:58.273Z,71.86
2018-09-15T00:24:26.186Z,72.80
2018-09-15T00:26:54.065Z,72.54
2018-09-15T00:29:21.744Z,72.25
2018-09-15T00:31:49.419Z,72.79
2018-09-15T00:34:17.140Z,71.90
2018-09-15T00:36:44.817Z,71.87
2018-09-15T00:39:12.546Z,71.95
2018-09-15T00:41:40.277Z,70.94
2018-09-15T00:44:08.163Z,68.17
2018-09-15T00:46:35.829Z,69.61
2018-09-15T00:49:03.786Z,67.99
2018-09-15T00:51:31.469Z,67.51
2018-09-15T00:53:59.210Z,67.83
2018-09-15T00:56:26.932Z,68.12
2018-09-15T00:58:54.642Z,67.58
2018-09-15T01:01:22.652Z,68.33
2018-09-15T01:03:50.370Z,67.64
2018-09-15T01:06:18.080Z,68.07
2018-09-15T01:08:45.801Z,67.28
2018-09-15T01:11:13.773Z,67.78
2018-09-15T01:13:41.654Z,68.10
2018-09-15T01:16:09.698Z,67.67
2018-09-15T01:18:37.419Z,67.06
2018-09-15T01:21:07.151Z,67.34
2018-09-15T01:23:55.749Z,66.64
2018-09-15T01:26:38.634Z,66.81
2018-09-15T01:29:06.567Z,67.88
2018-09-15T01:31:34.471Z,68.12
2018-09-15T01:34:02.290Z,67.90
2018-09-15T01:36:30.124Z,66.74
2018-09-15T01:38:58.223Z,66.23
2018-09-15T01:41:25.938Z,67.14
2018-09-15T01:44:00.878Z,67.09
2018-09-15T01:46:28.951Z,66.30
2018-09-15T01:48:56.628Z,66.70
2018-09-15T01:51:24.427Z,66.82
2018-09-15T01:53:52.160Z,66.35
2018-09-15T01:56:19.957Z,66.14
2018-09-15T01:58:47.966Z,65.40
2018-09-15T02:01:15.791Z,65.38
2018-09-15T02:03:43.583Z,65.01
2018-09-15T02:06:11.390Z,65.42
2018-09-15T02:08:39.091Z,65.13
2018-09-15T02:11:06.859Z,65.62
2018-09-15T02:13:34.667Z,65.65
2018-09-15T02:16:02.776Z,65.80
2018-09-15T02:18:30.551Z,65.52
2018-09-15T02:20:58.271Z,65.91
2018-09-15T02:23:26.072Z,65.75
2018-09-15T02:25:53.929Z,65.92
2018-09-15T02:28:22.257Z,66.01
2018-09-15T02:30:50.083Z,65.71
2018-09-15T02:33:17.775Z,66.23
2018-09-15T02:35:45.843Z,66.42
2018-09-15T02:38:13.855Z,66.72
2018-09-15T02:40:41.619Z,67.12
2018-09-15T02:43:09.463Z,67.26
2018-09-15T02:45:44.280Z,66.85
2018-09-15T02:48:12.003Z,67.06
2018-09-15T02:50:39.749Z,67.79
2018-09-15T02:53:07.469Z,67.12
2018-09-15T02:55:35.235Z,67.04
2018-09-15T02:58:02.979Z,67.65
2018-09-15T03:00:30.838Z,68.15
2018-09-15T03:02:58.679Z,67.63
2018-09-15T03:05:26.399Z,68.44
2018-09-15T03:07:54.163Z,69.06
2018-09-15T03:10:22.580Z,68.73
2018-09-15T03:12:50.319Z,68.37
2018-09-15T03:15:18.110Z,68.47
2018-09-15T03:17:46.125Z,69.19
2018-09-15T03:20:13.848Z,68.36
2018-09-15T03:22:41.608Z,69.25
2018-09-15T03:25:09.392Z,68.70
2018-09-15T03:27:37.086Z,68.88
2018-09-15T03:30:04.907Z,68.55
2018-09-15T03:32:32.714Z,68.80
2018-09-15T03:35:00.441Z,68.61
2018-09-15T03:37:28.280Z,68.30
2018-09-15T03:39:56.006Z,67.18
2018-09-15T03:42:23.775Z,69.12
2018-09-15T03:44:51.544Z,69.13
2018-09-15T03:47:19.487Z,69.41
2018-09-15T03:49:47.240Z,68.82
2018-09-15T03:52:15.017Z,69.12
2018-09-15T03:54:42.799Z,69.56
2018-09-15T03:57:10.546Z,69.89
2018-09-15T03:59:38.327Z,70.20
2018-09-15T04:02:06.119Z,70.81
2018-09-15T04:04:33.883Z,70.86
2018-09-15T04:07:01.647Z,72.00
2018-09-15T04:09:29.471Z,71.37
2018-09-15T04:11:57.185Z,72.12
2018-09-15T04:14:24.902Z,72.42
2018-09-15T04:16:52.670Z,72.36
2018-09-15T04:19:20.376Z,72.84
2018-09-15T04:21:48.127Z,72.46
2018-09-15T04:24:15.898Z,72.49
2018-09-15T04:26:43.665Z,73.08
2018-09-15T04:29:11.511Z,73.53
2018-09-15T04:31:39.232Z,73.27
2018-09-15T04:34:07.214Z,73.57
2018-09-15T04:36:35.001Z,73.95
2018-09-15T04:39:04.087Z,73.87
2018-09-15T04:41:31.854Z,73.40
2018-09-15T04:43:59.582Z,73.39
2018-09-15T04:46:27.317Z,73.84
2018-09-15T04:48:55.245Z,73.39
2018-09-15T04:51:23.328Z,72.84
2018-09-15T04:53:51.063Z,73.43
2018-09-15T04:56:18.774Z,73.03
2018-09-15T04:58:46.715Z,73.30
2018-09-15T05:01:14.477Z,73.53
2018-09-15T05:03:42.244Z,73.40
2018-09-15T05:06:10.197Z,73.68
2018-09-15T05:08:37.884Z,73.11
2018-09-15T05:11:05.720Z,73.29
2018-09-15T05:13:33.500Z,73.54
2018-09-15T05:16:01.203Z,73.39
2018-09-15T05:18:28.900Z,73.15
2018-09-15T05:20:56.663Z,73.55
2018-09-15T05:23:24.519Z,72.67
2018-09-15T05:25:52.394Z,72.39
2018-09-15T05:28:20.098Z,72.71
2018-09-15T05:30:47.866Z,72.47
2018-09-15T05:33:15.664Z,72.80
2018-09-15T05:35:43.382Z,72.30
2018-09-15T05:38:11.071Z,71.93
2018-09-15T05:40:38.883Z,71.34
2018-09-15T05:43:06.711Z,71.59
2018-09-15T05:45:34.419Z,71.23
2018-09-15T05:48:02.307Z,71.64
2018-09-15T05:50:30.023Z,71.13
2018-09-15T05:52:57.775Z,71.98
2018-09-15T05:55:25.535Z,71.83
2018-09-15T05:57:53.316Z,71.60
2018-09-15T06:00:21.544Z,71.54
2018-09-15T06:02:49.263Z,71.48
2018-09-15T06:05:17.044Z,71.60
2018-09-15T06:07:45.440Z,71.55
2018-09-15T06:10:13.146Z,71.85
2018-09-15T06:12:40.894Z,71.43
2018-09-15T06:15:08.792Z,71.65
2018-09-15T06:17:36.527Z,71.22
2018-09-15T06:20:04.640Z,71.00
2018-09-15T06:22:32.367Z,71.10
2018-09-15T06:25:00.090Z,71.15
2018-09-15T06:27:27.827Z,71.08
2018-09-15T06:29:55.908Z,71.66
2018-09-15T06:32:23.610Z,71.28
2018-09-15T06:34:51.339Z,71.25
2018-09-15T06:37:19.046Z,70.71
2018-09-15T06:39:46.774Z,70.76
2018-09-15T06:42:14.937Z,71.09
2018-09-15T06:44:42.646Z,70.69
2018-09-15T06:47:10.343Z,70.73
2018-09-15T06:49:38.159Z,70.18
2018-09-15T06:52:05.885Z,69.82
2018-09-15T06:54:33.668Z,69.96
2018-09-15T06:57:01.386Z,70.07
2018-09-15T06:59:29.139Z,69.42
2018-09-15T07:01:56.911Z,69.48
2018-09-15T07:04:24.635Z,69.51
2018-09-15T07:06:52.363Z,68.98
2018-09-15T07:09:20.123Z,69.05
2018-09-15T07:11:47.962Z,67.46
2018-09-15T07:14:15.712Z,65.68
2018-09-15T07:16:43.519Z,64.54
2018-09-15T07:19:11.239Z,65.32
2018-09-15T07:21:39.090Z,63.21
2018-09-15T07:24:06.923Z,63.50
2018-09-15T07:26:34.722Z,62.38
2018-09-15T07:29:02.817Z,60.74
2018-09-15T07:31:33.461Z,61.34
2018-09-15T07:34:01.178Z,62.78
2018-09-15T07:36:28.978Z,60.63
2018-09-15T07:38:56.887Z,60.48
2018-09-15T07:41:24.695Z,59.67
2018-09-15T07:43:52.844Z,58.58
2018-09-15T07:46:20.776Z,58.32
2018-09-15T07:48:48.591Z,57.77
2018-09-15T07:51:16.332Z,56.65
2018-09-15T07:53:44.171Z,54.90
2018-09-15T07:56:11.979Z,55.56
2018-09-15T07:58:39.932Z,55.07
2018-09-15T08:01:07.881Z,55.55
2018-09-15T08:03:37.031Z,55.18
2018-09-15T08:06:04.911Z,54.50
2018-09-15T08:08:32.683Z,54.23
2018-09-15T08:11:00.471Z,53.62
2018-09-15T08:13:28.291Z,54.34
2018-09-15T08:15:56.227Z,53.14
2018-09-15T08:18:23.933Z,51.32
2018-09-15T08:20:51.699Z,50.81
2018-09-15T08:23:19.454Z,50.03
2018-09-15T08:25:47.360Z,49.60
2018-09-15T08:28:15.376Z,49.90
2018-09-15T08:30:43.799Z,48.49
2018-09-15T08:33:11.521Z,49.01
2018-09-15T08:35:39.250Z,50.50
2018-09-15T08:38:07.024Z,48.73
2018-09-15T08:40:34.736Z,47.85
2018-09-15T08:43:02.707Z,46.88
2018-09-15T08:45:30.835Z,45.80
2018-09-15T08:47:58.560Z,52.16
2018-09-15T08:50:26.359Z,52.64
2018-09-15T08:52:54.052Z,51.94
2018-09-15T08:55:21.787Z,51.28
2018-09-15T08:57:49.801Z,49.05
2018-09-15T09:00:17.983Z,48.91
2018-09-15T09:02:46.445Z,47.24
2018-09-15T09:05:14.495Z,49.22
2018-09-15T09:07:42.265Z,47.46
2018-09-15T09:10:10.513Z,43.30
2018-09-15T09:12:38.222Z,46.12
2018-09-15T09:15:06.005Z,44.02
2018-09-15T09:17:33.727Z,43.88
2018-09-15T09:20:01.824Z,44.08
2018-09-15T09:22:29.627Z,43.45
2018-09-15T09:24:57.686Z,44.88
2018-09-15T09:27:25.533Z,42.77
2018-09-15T09:29:53.367Z,43.04
2018-09-15T09:32:21.209Z,43.03
2018-09-15T09:34:48.977Z,41.06
2018-09-15T09:37:16.865Z,42.81
2018-09-15T09:39:44.742Z,42.37
2018-09-15T09:42:12.540Z,41.38
2018-09-15T09:44:40.315Z,40.08
2018-09-15T09:47:08.196Z,41.70
2018-09-15T09:49:35.886Z,41.45
2018-09-15T09:52:04.534Z,40.59
2018-09-15T09:54:32.275Z,40.55
2018-09-15T09:56:59.981Z,38.18
2018-09-15T09:59:27.770Z,39.88
2018-09-15T10:02:02.346Z,39.22
2018-09-15T10:04:30.799Z,37.69
2018-09-15T10:06:58.636Z,39.27
2018-09-15T10:09:26.392Z,35.25
2018-09-15T10:11:54.135Z,38.09
2018-09-15T10:14:21.927Z,36.97
2018-09-15T10:16:49.634Z,37.49
2018-09-15T10:19:17.511Z,38.03
2018-09-15T10:21:45.222Z,37.86
2018-09-15T10:24:13.035Z,36.96
2018-09-15T10:26:40.844Z,35.78
2018-09-15T10:29:08.650Z,34.49
2018-09-15T10:31:36.488Z,35.37
2018-09-15T10:34:04.263Z,35.43
2018-09-15T10:36:31.999Z,36.59
2018-09-15T10:38:59.781Z,35.81
2018-09-15T10:41:27.585Z,35.58
2018-09-15T10:43:55.384Z,36.34
2018-09-15T10:46:23.195Z,34.25
2018-09-15T10:48:51.044Z,34.62
2018-09-15T10:51:18.879Z,35.25
2018-09-15T10:53:46.568Z,34.58
2018-09-15T10:56:14.384Z,35.03
2018-09-15T10:58:42.259Z,34.01
2018-09-15T11:01:09.998Z,32.10
2018-09-15T11:03:37.755Z,32.18
2018-09-15T11:06:05.511Z,33.00
2018-09-15T11:08:33.324Z,32.77
2018-09-15T11:11:01.202Z,33.57
2018-09-15T11:13:29.335Z,32.56
2018-09-15T11:16:03.787Z,32.31
2018-09-15T11:18:31.523Z,31.47
2018-09-15T11:20:59.427Z,32.92
2018-09-15T11:23:27.179Z,32.21
2018-09-15T11:25:54.919Z,32.67
2018-09-15T11:28:22.659Z,32.78
2018-09-15T11:30:50.487Z,33.30
2018-09-15T11:33:18.211Z,31.55
2018-09-15T11:35:46.019Z,32.39
2018-09-15T11:38:13.751Z,35.01
2018-09-15T11:40:41.515Z,34.38
2018-09-15T11:43:09.459Z,33.90
2018-09-15T11:45:37.559Z,33.23
2018-09-15T11:48:05.575Z,33.27
2018-09-15T11:50:33.482Z,33.29
2018-09-15T11:53:01.267Z,33.27
2018-09-15T11:55:29.090Z,33.81
2018-09-15T11:57:56.822Z,34.32
2018-09-15T12:00:27.040Z,34.14
2018-09-15T12:02:54.730Z,32.45
2018-09-15T12:05:22.826Z,32.85
2018-09-15T12:08:02.552Z,31.50
2018-09-15T12:10:30.423Z,33.04
2018-09-15T12:12:58.271Z,32.87
2018-09-15T12:15:26.145Z,33.13
2018-09-15T12:17:53.845Z,34.54
2018-09-15T12:20:21.661Z,35.19
2018-09-15T12:22:49.343Z,36.96
2018-09-15T12:25:17.215Z,33.09
2018-09-15T12:27:45.149Z,33.85
2018-09-15T12:30:12.843Z,33.07
2018-09-15T12:32:40.618Z,34.00
2018-09-15T12:35:08.407Z,33.68
2018-09-15T12:37:36.214Z,34.37
2018-09-15T12:40:04.334Z,34.84
2018-09-15T12:42:32.047Z,34.16
2018-09-15T12:45:00.066Z,33.86
2018-09-15T12:47:27.787Z,32.72
2018-09-15T12:49:55.543Z,32.48
2018-09-15T12:52:23.288Z,32.02
2018-09-15T12:54:50.967Z,31.81
2018-09-15T12:57:18.778Z,32.47
2018-09-15T12:59:46.500Z,31.71
2018-09-15T13:02:14.197Z,30.71
2018-09-15T13:04:41.987Z,32.14
2018-09-15T13:07:09.736Z,32.56
2018-09-15T13:09:37.564Z,32.43
2018-09-15T13:12:05.404Z,34.46
2018-09-15T13:14:33.108Z,32.54
2018-09-15T13:17:00.860Z,32.75
2018-09-15T13:19:28.598Z,32.79
2018-09-15T13:21:56.312Z,32.82
2018-09-15T13:24:24.043Z,32.92
2018-09-15T13:26:51.776Z,33.34
2018-09-15T13:29:19.599Z,34.86
2018-09-15T13:31:47.395Z,34.54
2018-09-15T13:34:15.175Z,33.37
2018-09-15T13:36:42.921Z,32.98
2018-09-15T13:39:14.699Z,32.87
2018-09-15T13:41:42.378Z,32.83
2018-09-15T13:44:10.099Z,32.48
2018-09-15T13:46:37.853Z,33.41
2018-09-15T13:49:06.140Z,33.97
2018-09-15T13:51:33.978Z,33.44
2018-09-15T13:54:01.690Z,34.29
2018-09-15T13:56:29.420Z,34.40
2018-09-15T13:58:57.398Z,35.13
2018-09-15T14:01:25.094Z,33.50
2018-09-15T14:03:52.855Z,34.03
2018-09-15T14:06:20.909Z,33.62
2018-09-15T14:08:48.865Z,34.14
2018-09-15T14:11:16.572Z,34.09
2018-09-15T14:13:44.308Z,34.25
2018-09-15T14:16:12.505Z,33.96
2018-09-15T14:18:40.280Z,33.55
2018-09-15T14:21:08.202Z,34.23
2018-09-15T14:23:35.902Z,34.30
2018-09-15T14:26:03.641Z,35.14
2018-09-15T14:28:31.485Z,35.26
2018-09-15T14:30:59.177Z,35.43
2018-09-15T14:34:01.625Z,33.99
2018-09-15T14:36:34.266Z,34.32
2018-09-15T14:39:03.339Z,34.92
2018-09-15T14:41:31.135Z,35.60
2018-09-15T14:47:02.082Z,37.13
2018-09-15T14:49:29.857Z,36.88
2018-09-15T14:51:57.578Z,36.56
2018-09-15T14:54:25.324Z,35.84
2018-09-15T14:56:53.015Z,35.12
2018-09-15T14:59:20.792Z,36.99
2018-09-15T15:01:48.587Z,37.21
2018-09-15T15:04:16.306Z,37.36
2018-09-15T15:06:44.073Z,37.77
2018-09-15T15:09:11.898Z,37.31
2018-09-15T15:11:39.971Z,35.93
2018-09-15T15:14:08.234Z,37.52
2018-09-15T15:16:35.977Z,36.53
2018-09-15T15:19:03.747Z,37.86
2018-09-15T15:21:31.772Z,36.32
2018-09-15T15:23:59.535Z,37.03
2018-09-15T15:26:27.361Z,37.75
2018-09-15T15:28:55.035Z,37.84
2018-09-15T15:31:22.828Z,38.15
2018-09-15T15:33:50.691Z,38.32
2018-09-15T15:36:18.407Z,38.60
2018-09-15T15:38:46.117Z,38.65
2018-09-15T15:41:13.880Z,38.10
2018-09-15T15:43:42.046Z,38.18
2018-09-15T15:46:09.831Z,39.14
2018-09-15T15:48:37.559Z,38.88
2018-09-15T15:51:05.308Z,39.48
2018-09-15T15:53:33.058Z,38.48
2018-09-15T15:56:00.784Z,38.59
2018-09-15T15:58:28.588Z,39.45
2018-09-15T16:00:56.209Z,39.30
2018-09-15T16:03:24.413Z,39.88
2018-09-15T16:05:52.137Z,38.91
2018-09-15T16:08:19.831Z,38.62
2018-09-15T16:10:47.576Z,39.39
2018-09-15T16:13:15.330Z,38.46
2018-09-15T16:15:43.261Z,39.32
2018-09-15T16:18:11.076Z,38.65
2018-09-15T16:20:38.802Z,38.96
2018-09-15T16:23:06.889Z,38.87
2018-09-15T16:25:34.663Z,39.74
2018-09-15T16:28:02.784Z,39.06
2018-09-15T16:30:30.629Z,38.90
2018-09-15T16:32:58.279Z,39.14
2018-09-15T16:35:26.149Z,39.32
2018-09-15T16:37:54.023Z,39.49
2018-09-15T16:40:21.967Z,39.93
2018-09-15T16:42:49.877Z,40.20
2018-09-15T16:45:17.750Z,39.69
2018-09-15T16:47:45.508Z,40.90
2018-09-15T16:50:13.504Z,40.21
2018-09-15T16:52:41.337Z,39.84
2018-09-15T16:55:09.276Z,40.83
2018-09-15T16:57:37.026Z,40.71
2018-09-15T17:00:04.915Z,40.81
2018-09-15T17:02:32.692Z,41.16
2018-09-15T17:05:00.839Z,40.96
2018-09-15T17:07:28.691Z,40.98
2018-09-15T17:09:56.584Z,40.44
2018-09-15T17:12:24.387Z,41.48
2018-09-15T17:14:52.182Z,41.22
2018-09-15T17:17:20.062Z,40.88
2018-09-15T17:19:47.834Z,41.58
2018-09-15T17:22:15.787Z,43.06
2018-09-15T17:24:43.504Z,41.70
2018-09-15T17:27:11.335Z,42.25
2018-09-15T17:29:39.121Z,42.41
2018-09-15T17:32:07.276Z,43.40
2018-09-15T17:34:35.139Z,44.20
2018-09-15T17:37:04.508Z,45.36
2018-09-15T17:39:32.328Z,45.71
2018-09-15T17:42:00.166Z,45.53
2018-09-15T17:44:27.910Z,45.72
2018-09-15T17:46:55.708Z,47.02
2018-09-15T17:49:23.744Z,46.38
2018-09-15T17:51:52.499Z,47.56
2018-09-15T17:54:20.293Z,47.44
2018-09-15T17:56:48.137Z,47.89
2018-09-15T17:59:16.128Z,48.50
2018-09-15T18:01:44.102Z,47.89
2018-09-15T18:04:11.880Z,48.19
2018-09-15T18:06:39.764Z,49.22
2018-09-15T18:09:08.410Z,49.69
2018-09-15T18:11:36.448Z,49.16
2018-09-15T18:14:04.223Z,50.30
2018-09-15T18:16:32.130Z,50.23
2018-09-15T18:18:59.970Z,50.57
2018-09-15T18:21:27.716Z,50.53
2018-09-15T18:23:55.593Z,51.12
2018-09-15T18:26:23.384Z,51.67
2018-09-15T18:28:51.159Z,52.15
2018-09-15T18:31:18.990Z,52.46
2018-09-15T18:33:46.832Z,52.70
2018-09-15T18:36:14.574Z,53.51
2018-09-15T18:38:42.335Z,53.24
2018-09-15T18:41:10.129Z,53.45
2018-09-15T18:43:37.962Z,53.20
2018-09-15T18:46:05.751Z,53.15
2018-09-15T18:48:33.561Z,54.13
2018-09-15T18:51:01.768Z,53.94
2018-09-15T18:53:29.731Z,54.60
2018-09-15T18:55:57.589Z,54.66
2018-09-15T18:58:25.407Z,55.43
2018-09-15T19:00:53.201Z,55.24
2018-09-15T19:03:21.054Z,55.02
2018-09-15T19:05:48.852Z,54.72
2018-09-15T19:08:16.647Z,55.21
2018-09-15T19:10:44.531Z,55.08
2018-09-15T19:13:12.607Z,54.81
2018-09-15T19:15:40.710Z,54.49
2018-09-15T19:18:08.471Z,55.63
2018-09-15T19:20:36.280Z,55.13
2018-09-15T19:23:04.318Z,55.39
2018-09-15T19:25:32.047Z,55.54
2018-09-15T19:28:00.051Z,55.70
2018-09-15T19:30:27.808Z,54.66
2018-09-15T19:32:55.532Z,54.76
2018-09-15T19:35:23.637Z,54.88
2018-09-15T19:37:51.327Z,55.03
2018-09-15T19:40:19.717Z,54.80
2018-09-15T19:42:47.476Z,55.05
2018-09-15T19:45:15.380Z,55.35
2018-09-15T19:47:43.391Z,55.12
2018-09-15T19:50:11.263Z,55.52
2018-09-15T19:52:39.095Z,55.92
2018-09-15T19:55:07.024Z,55.62
2018-09-15T19:57:35.016Z,55.00
2018-09-15T20:00:02.919Z,55.74
2018-09-15T20:02:30.689Z,55.80
2018-09-15T20:04:58.617Z,55.39
2018-09-15T20:07:26.384Z,55.01
2018-09-15T20:09:54.244Z,55.29
2018-09-15T20:12:22.116Z,55.17
2018-09-15T20:14:50.000Z,55.37
2018-09-15T20:17:16.414Z,56.23
2018-09-15T20:19:42.958Z,55.96
2018-09-15T20:22:10.716Z,55.83
2018-09-15T20:24:38.844Z,55.75
2018-09-15T20:27:06.640Z,56.75
2018-09-15T20:29:34.462Z,56.22
2018-09-15T20:32:02.486Z,56.92
2018-09-15T20:34:30.371Z,56.29
2018-09-15T20:36:58.228Z,56.43
2018-09-15T20:39:25.999Z,57.06
2018-09-15T20:41:53.888Z,56.39
2018-09-15T20:44:21.682Z,56.47
2018-09-15T20:46:49.651Z,56.60
2018-09-15T20:49:17.482Z,56.19
2018-09-15T20:51:45.246Z,56.66
2018-09-15T20:54:13.066Z,56.85
2018-09-15T20:56:40.969Z,56.77
2018-09-15T20:59:08.693Z,56.52
2018-09-15T21:01:37.064Z,56.89
2018-09-15T21:04:04.869Z,57.78
2018-09-15T21:06:32.608Z,57.49
2018-09-15T21:09:00.346Z,57.51
2018-09-15T21:11:28.067Z,57.97
2018-09-15T21:13:55.762Z,57.77
2018-09-15T21:16:23.511Z,57.46
2018-09-15T21:18:51.282Z,57.76
2018-09-15T21:21:18.971Z,57.24
2018-09-15T21:23:46.700Z,57.54
2018-09-15T21:26:14.408Z,57.32
2018-09-15T21:28:42.154Z,57.92
2018-09-15T21:31:09.887Z,57.43
2018-09-15T21:33:37.597Z,57.82
2018-09-15T21:36:05.828Z,58.44
2018-09-15T21:38:33.561Z,57.84
2018-09-15T21:41:01.314Z,58.06
2018-09-15T21:43:29.118Z,58.41
2018-09-15T21:45:56.959Z,57.63
2018-09-15T21:48:24.692Z,58.34
2018-09-15T21:50:52.447Z,58.02
2018-09-15T21:53:20.175Z,58.07
2018-09-15T21:55:47.912Z,58.00
2018-09-15T21:58:15.621Z,58.39
2018-09-15T22:00:43.423Z,58.55
2018-09-15T22:03:11.195Z,58.70
2018-09-15T22:05:38.963Z,58.57
2018-09-15T22:08:06.703Z,58.15
2018-09-15T22:10:34.553Z,58.56
2018-09-15T22:13:02.369Z,58.57
2018-09-15T22:15:30.078Z,58.55
2018-09-15T22:17:58.331Z,57.83
2018-09-15T22:20:26.411Z,58.17
2018-09-15T22:22:54.152Z,58.07
2018-09-15T22:25:21.983Z,58.07
2018-09-15T22:27:49.775Z,58.51
2018-09-15T22:30:17.663Z,58.43
2018-09-15T22:32:45.464Z,58.85
2018-09-15T22:35:13.182Z,59.41
2018-09-15T22:37:40.975Z,59.63
2018-09-15T22:40:09.870Z,59.80
2018-09-15T22:42:37.595Z,59.47
2018-09-15T22:45:05.786Z,59.70
2018-09-15T22:47:33.623Z,60.22
2018-09-15T22:50:01.636Z,61.06
2018-09-15T22:52:29.387Z,60.89
2018-09-15T22:54:57.151Z,61.11
2018-09-15T22:57:24.896Z,61.75
2018-09-15T22:59:53.024Z,60.89
2018-09-15T23:02:20.719Z,60.79
2018-09-15T23:04:48.450Z,61.33
2018-09-15T23:07:16.340Z,61.08
2018-09-15T23:09:44.127Z,60.48
2018-09-15T23:12:11.822Z,60.72
2018-09-15T23:14:39.528Z,60.31
2018-09-15T23:17:07.272Z,60.29
2018-09-15T23:19:35.034Z,60.11
2018-09-15T23:22:02.848Z,60.45
2018-09-15T23:24:30.667Z,60.90
2018-09-15T23:26:58.379Z,60.97
2018-09-15T23:29:26.174Z,60.61
2018-09-15T23:31:53.909Z,60.91
2018-09-15T23:34:21.774Z,61.27
2018-09-15T23:36:49.842Z,60.97
2018-09-15T23:39:17.671Z,60.70
2018-09-15T23:41:45.419Z,60.60
2018-09-15T23:44:13.466Z,60.37
2018-09-15T23:46:41.235Z,61.13
2018-09-15T23:49:09.052Z,61.04
2018-09-15T23:51:37.006Z,61.22
2018-09-15T23:54:04.710Z,61.46
2018-09-15T23:56:32.509Z,61.75
2018-09-15T23:59:00.226Z,60.98
